createdAt,value
2022-12-11T00:00:38.135Z,15.63
2022-12-11T00:02:42.358Z,15.75
2022-12-11T00:04:43.957Z,13.25
2022-12-11T00:06:51.652Z,15.95
2022-12-11T00:08:55.894Z,14.55
2022-12-11T00:11:00.335Z,14.15
2022-12-11T00:13:01.988Z,11.68
2022-12-11T00:15:03.596Z,14.90
2022-12-11T00:19:11.826Z,13.83
2022-12-11T00:21:14.487Z,10.77
2022-12-11T00:23:18.726Z,12.40
2022-12-11T00:25:22.961Z,14.43
2022-12-11T00:27:27.611Z,13.85
2022-12-11T00:29:31.801Z,14.70
2022-12-11T00:33:39.948Z,12.68
2022-12-11T00:35:42.576Z,12.30
2022-12-11T00:37:46.572Z,13.70
2022-12-11T00:39:48.061Z,13.82
2022-12-11T00:41:52.098Z,14.20
2022-12-11T00:43:56.481Z,13.82
2022-12-11T00:45:58.324Z,13.88
2022-12-11T00:48:02.989Z,12.75
2022-12-11T00:50:07.670Z,12.00
2022-12-11T00:52:11.773Z,12.80
2022-12-11T00:54:16.430Z,13.45
2022-12-11T00:56:20.259Z,14.40
2022-12-11T00:58:24.503Z,15.65
2022-12-11T01:00:25.937Z,13.40
2022-12-11T01:02:41.674Z,13.27
2022-12-11T01:04:59.441Z,14.18
2022-12-11T01:07:10.585Z,11.50
2022-12-11T01:09:49.248Z,12.63
2022-12-11T01:12:09.161Z,12.88
2022-12-11T01:14:34.733Z,14.35
2022-12-11T01:16:47.178Z,12.40
2022-12-11T01:19:12.129Z,14.07
2022-12-11T01:21:43.248Z,14.68
2022-12-11T01:24:05.465Z,12.45
2022-12-11T01:26:33.401Z,12.93
2022-12-11T01:29:06.608Z,11.55
2022-12-11T01:31:42.570Z,12.23
2022-12-11T01:34:15.306Z,10.90
2022-12-11T01:36:46.735Z,11.63
2022-12-11T01:38:54.369Z,14.43
2022-12-11T01:41:17.680Z,12.02
2022-12-11T01:43:19.484Z,15.60
2022-12-11T01:45:38.993Z,14.80
2022-12-11T01:47:43.865Z,14.93
2022-12-11T01:49:48.030Z,15.93
2022-12-11T01:51:52.407Z,13.93
2022-12-11T01:53:59.338Z,13.30
2022-12-11T01:56:01.235Z,13.15
2022-12-11T01:58:02.946Z,14.82
2022-12-11T02:00:05.437Z,13.23
2022-12-11T02:02:24.206Z,13.32
2022-12-11T02:04:28.955Z,13.48
2022-12-11T02:06:41.101Z,13.25
2022-12-11T02:08:45.813Z,10.57
2022-12-11T02:10:47.420Z,15.00
2022-12-11T02:12:49.066Z,13.00
2022-12-11T02:15:03.461Z,13.00
2022-12-11T02:17:10.324Z,15.38
2022-12-11T02:19:27.112Z,14.35
2022-12-11T02:21:33.029Z,15.80
2022-12-11T02:23:58.467Z,11.98
2022-12-11T02:26:21.251Z,11.40
2022-12-11T02:28:28.472Z,13.18
2022-12-11T02:30:33.512Z,13.15
2022-12-11T02:32:57.587Z,13.18
2022-12-11T02:35:20.861Z,13.07
2022-12-11T02:37:24.540Z,12.75
2022-12-11T02:39:29.513Z,14.20
2022-12-11T02:41:34.264Z,10.25
2022-12-11T02:43:36.856Z,10.00
2022-12-11T02:45:39.882Z,9.95
2022-12-11T02:47:46.322Z,9.07
2022-12-11T02:49:49.653Z,8.33
2022-12-11T02:51:54.982Z,7.90
2022-12-11T02:54:00.007Z,6.32
2022-12-11T02:56:11.733Z,7.13
2022-12-11T02:58:16.404Z,8.13
2022-12-11T03:00:23.742Z,7.93
2022-12-11T03:02:25.411Z,8.95
2022-12-11T03:04:30.201Z,7.32
2022-12-11T03:06:35.780Z,7.72
2022-12-11T03:08:39.872Z,7.35
2022-12-11T03:10:45.213Z,6.95
2022-12-11T03:12:53.880Z,6.32
2022-12-11T03:15:00.810Z,7.97
2022-12-11T03:17:22.298Z,8.85
2022-12-11T03:19:37.485Z,7.30
2022-12-11T03:21:39.048Z,6.57
2022-12-11T03:24:03.836Z,7.68
2022-12-11T03:26:06.848Z,7.75
2022-12-11T03:28:13.904Z,7.18
2022-12-11T03:30:19.845Z,8.52
2022-12-11T03:32:27.748Z,8.27
2022-12-11T03:34:41.404Z,7.55
2022-12-11T03:36:43.812Z,8.15
2022-12-11T03:38:51.041Z,9.35
2022-12-11T03:40:58.388Z,8.30
2022-12-11T03:43:00.147Z,7.50
2022-12-11T03:45:05.328Z,8.20
2022-12-11T03:47:10.505Z,8.15
2022-12-11T03:49:20.963Z,9.43
2022-12-11T03:51:26.864Z,8.88
2022-12-11T03:53:28.778Z,7.97
2022-12-11T03:55:33.441Z,10.20
2022-12-11T03:57:36.068Z,10.52
2022-12-11T03:59:38.167Z,7.32
2022-12-11T04:01:39.769Z,8.57
2022-12-11T04:03:41.334Z,9.55
2022-12-11T04:05:44.052Z,9.32
2022-12-11T04:07:54.078Z,6.28
2022-12-11T04:10:05.491Z,9.13
2022-12-11T04:12:28.211Z,9.82
2022-12-11T04:15:07.353Z,8.50
2022-12-11T04:17:50.388Z,6.38
2022-12-11T04:20:16.206Z,7.57
2022-12-11T04:22:38.675Z,6.97
2022-12-11T04:24:44.848Z,7.82
2022-12-11T04:26:52.209Z,7.47
2022-12-11T04:28:57.536Z,7.30
2022-12-11T04:31:01.839Z,5.03
2022-12-11T04:33:08.977Z,7.68
2022-12-11T04:35:14.627Z,9.00
2022-12-11T04:37:18.947Z,6.75
2022-12-11T04:39:23.296Z,6.22
2022-12-11T04:41:27.604Z,7.93
2022-12-11T04:43:31.762Z,6.88
2022-12-11T04:45:36.485Z,7.75
2022-12-11T04:47:42.436Z,5.55
2022-12-11T04:49:50.150Z,8.32
2022-12-11T04:51:59.858Z,6.35
2022-12-11T04:54:06.735Z,6.55
2022-12-11T04:56:13.768Z,6.38
2022-12-11T04:58:18.479Z,5.47
2022-12-11T05:00:22.537Z,6.47
2022-12-11T05:02:29.693Z,7.43
2022-12-11T05:04:37.008Z,7.75
2022-12-11T05:06:41.365Z,7.43
2022-12-11T05:08:48.198Z,6.03
2022-12-11T05:11:02.828Z,6.25
2022-12-11T05:13:06.064Z,5.30
2022-12-11T05:15:09.833Z,4.85
2022-12-11T05:17:15.764Z,4.93
2022-12-11T05:19:21.596Z,5.65
2022-12-11T05:21:33.216Z,5.75
2022-12-11T05:23:41.851Z,5.90
2022-12-11T05:25:53.150Z,5.55
2022-12-11T05:27:59.512Z,5.97
2022-12-11T05:30:06.520Z,6.00
2022-12-11T05:32:10.722Z,5.68
2022-12-11T05:34:15.975Z,8.00
2022-12-11T05:36:24.584Z,5.50
2022-12-11T05:38:28.909Z,4.57
2022-12-11T05:40:30.377Z,6.82
2022-12-11T05:42:32.659Z,7.00
2022-12-11T05:44:36.901Z,4.63
2022-12-11T05:46:41.561Z,6.85
2022-12-11T05:48:47.204Z,5.63
2022-12-11T05:51:01.403Z,5.03
2022-12-11T05:53:04.267Z,6.93
2022-12-11T05:55:09.746Z,7.00
2022-12-11T05:57:14.268Z,5.63
2022-12-11T06:01:29.046Z,5.55
2022-12-11T06:03:33.534Z,7.25
2022-12-11T06:05:38.036Z,6.03
2022-12-11T06:07:39.694Z,4.70
2022-12-11T06:09:44.205Z,5.45
2022-12-11T06:11:45.786Z,5.32
2022-12-11T06:13:47.304Z,5.85
2022-12-11T06:15:48.920Z,5.60
2022-12-11T06:17:53.107Z,5.63
2022-12-11T06:19:54.696Z,4.97
2022-12-11T06:22:02.296Z,5.90
2022-12-11T06:24:04.085Z,6.13
2022-12-11T06:26:08.640Z,6.05
2022-12-11T06:28:16.106Z,6.05
2022-12-11T06:30:20.817Z,5.07
2022-12-11T06:32:25.082Z,5.05
2022-12-11T06:36:30.644Z,6.35
2022-12-11T06:38:32.201Z,7.40
2022-12-11T06:40:39.972Z,7.22
2022-12-11T06:42:47.099Z,8.20
2022-12-11T06:44:48.796Z,8.13
2022-12-11T06:46:50.445Z,8.30
2022-12-11T06:48:55.022Z,7.55
2022-12-11T06:50:56.479Z,7.18
2022-12-11T06:53:00.780Z,6.10
2022-12-11T06:55:05.336Z,6.88
2022-12-11T06:57:09.873Z,7.32
2022-12-11T06:59:12.088Z,7.57
2022-12-11T07:01:14.864Z,6.57
2022-12-11T07:03:19.652Z,6.75
2022-12-11T07:05:21.116Z,5.43
2022-12-11T07:07:25.284Z,7.50
2022-12-11T07:09:32.552Z,6.57
2022-12-11T07:11:50.372Z,8.32
2022-12-11T07:14:14.240Z,6.95
2022-12-11T07:16:33.293Z,6.22
2022-12-11T07:18:58.709Z,7.53
2022-12-11T07:21:20.501Z,6.82
2022-12-11T07:23:44.606Z,6.68
2022-12-11T07:26:08.235Z,7.43
2022-12-11T07:28:30.388Z,6.65
2022-12-11T07:30:50.547Z,7.32
2022-12-11T07:33:14.063Z,7.45
2022-12-11T07:35:35.920Z,7.50
2022-12-11T07:37:54.973Z,6.68
2022-12-11T07:40:17.421Z,8.10
2022-12-11T07:42:37.625Z,8.20
2022-12-11T07:47:07.612Z,6.97
2022-12-11T07:49:17.248Z,7.50
2022-12-11T07:51:28.265Z,7.57
2022-12-11T07:53:36.241Z,6.85
2022-12-11T07:55:40.817Z,8.32
2022-12-11T07:57:47.093Z,7.85
2022-12-11T07:59:54.596Z,8.30
2022-12-11T08:01:58.843Z,7.32
2022-12-11T08:04:07.883Z,8.05
2022-12-11T08:06:15.915Z,6.80
2022-12-11T08:08:21.618Z,7.72
2022-12-11T08:10:25.959Z,6.60
2022-12-11T08:12:30.981Z,7.82
2022-12-11T08:14:36.158Z,7.20
2022-12-11T08:16:44.323Z,8.25
2022-12-11T08:18:49.942Z,7.82
2022-12-11T08:20:54.213Z,6.53
2022-12-11T08:23:01.700Z,7.30
2022-12-11T08:25:06.950Z,7.20
2022-12-11T08:27:09.039Z,7.80
2022-12-11T08:29:11.030Z,6.43
2022-12-11T08:31:14.049Z,6.40
2022-12-11T08:33:15.561Z,5.95
2022-12-11T08:35:20.000Z,6.65
2022-12-11T08:37:24.756Z,5.80
2022-12-11T08:39:26.878Z,6.78
2022-12-11T08:41:31.346Z,7.70
2022-12-11T08:43:35.838Z,8.25
2022-12-11T08:45:40.461Z,8.88
2022-12-11T08:47:45.307Z,7.25
2022-12-11T08:49:49.497Z,8.15
2022-12-11T08:51:50.978Z,7.20
2022-12-11T08:56:01.231Z,8.82
2022-12-11T08:58:05.946Z,8.23
2022-12-11T09:00:12.740Z,8.27
2022-12-11T09:02:14.847Z,7.88
2022-12-11T09:04:16.820Z,9.95
2022-12-11T09:06:26.218Z,10.57
2022-12-11T09:08:30.876Z,9.13
2022-12-11T09:10:35.477Z,9.13
2022-12-11T09:12:37.354Z,9.07
2022-12-11T09:14:39.152Z,6.38
2022-12-11T09:16:43.857Z,7.40
2022-12-11T09:18:49.993Z,6.30
2022-12-11T09:21:01.137Z,7.50
2022-12-11T09:23:06.465Z,5.15
2022-12-11T09:25:11.439Z,5.28
2022-12-11T09:27:15.930Z,5.75
2022-12-11T09:29:20.541Z,6.18
2022-12-11T09:31:27.262Z,5.30
2022-12-11T09:33:32.167Z,4.90
2022-12-11T09:35:39.752Z,5.05
2022-12-11T09:37:41.493Z,4.13
2022-12-11T09:39:46.398Z,4.07
2022-12-11T09:41:56.896Z,4.28
2022-12-11T09:44:08.053Z,4.38
2022-12-11T09:46:13.953Z,4.75
2022-12-11T09:48:22.204Z,3.53
2022-12-11T09:50:32.930Z,3.35
2022-12-11T09:52:46.223Z,5.07
2022-12-11T09:54:54.070Z,4.28
2022-12-11T09:56:55.951Z,3.83
2022-12-11T09:59:17.021Z,5.15
2022-12-11T10:01:26.491Z,4.93
2022-12-11T10:03:37.976Z,5.30
2022-12-11T10:05:46.086Z,4.38
2022-12-11T10:07:52.164Z,4.15
2022-12-11T10:09:54.136Z,3.53
2022-12-11T10:12:08.560Z,3.95
2022-12-11T10:14:31.554Z,4.05
2022-12-11T10:16:33.482Z,4.30
2022-12-11T10:18:40.855Z,3.28
2022-12-11T10:21:02.677Z,3.88
2022-12-11T10:25:37.456Z,3.42
2022-12-11T10:27:50.445Z,3.67
2022-12-11T10:30:23.181Z,3.53
2022-12-11T10:33:04.213Z,3.97
2022-12-11T10:35:24.766Z,3.08
2022-12-11T10:37:40.476Z,3.22
2022-12-11T10:39:57.047Z,3.67
2022-12-11T10:42:33.965Z,2.92
2022-12-11T10:44:48.678Z,3.60
2022-12-11T10:47:20.068Z,4.00
2022-12-11T10:49:34.427Z,5.10
2022-12-11T10:51:48.805Z,4.35
2022-12-11T10:54:09.100Z,4.53
2022-12-11T10:56:21.948Z,3.90
2022-12-11T10:58:33.884Z,3.85
2022-12-11T11:00:39.299Z,3.85
2022-12-11T11:02:45.287Z,3.67
2022-12-11T11:04:47.023Z,4.05
2022-12-11T11:07:01.236Z,3.10
2022-12-11T11:09:03.879Z,3.47
2022-12-11T11:11:21.214Z,3.50
2022-12-11T11:13:27.808Z,3.85
2022-12-11T11:15:31.300Z,3.67
2022-12-11T11:17:35.474Z,3.08
2022-12-11T11:19:39.206Z,3.00
2022-12-11T11:21:49.386Z,3.45
2022-12-11T11:23:57.186Z,3.42
2022-12-11T11:26:00.393Z,3.72
2022-12-11T11:28:07.046Z,3.00
2022-12-11T11:30:38.439Z,5.57
2022-12-11T11:32:41.456Z,4.65
2022-12-11T11:34:46.110Z,3.63
2022-12-11T11:36:58.190Z,2.65
2022-12-11T11:39:03.001Z,3.80
2022-12-11T11:41:10.150Z,2.72
2022-12-11T11:43:30.323Z,3.03
2022-12-11T11:45:35.652Z,3.58
2022-12-11T11:48:09.434Z,3.85
2022-12-11T11:50:20.499Z,3.17
2022-12-11T11:52:29.776Z,3.47
2022-12-11T11:54:43.677Z,3.10
2022-12-11T11:56:49.698Z,2.45
2022-12-11T11:59:02.683Z,3.45
2022-12-11T12:01:18.134Z,3.20
2022-12-11T12:03:20.114Z,2.70
2022-12-11T12:05:29.451Z,2.80
2022-12-11T12:07:40.994Z,2.65
2022-12-11T12:09:48.545Z,3.10
2022-12-11T12:12:09.057Z,2.45
2022-12-11T12:14:51.004Z,6.70
2022-12-11T12:16:53.390Z,5.18
2022-12-11T12:19:13.079Z,4.68
2022-12-11T12:21:33.721Z,4.40
2022-12-11T12:23:41.181Z,4.32
2022-12-11T12:25:49.320Z,5.50
2022-12-11T12:28:05.016Z,3.58
2022-12-11T12:30:13.312Z,3.78
2022-12-11T12:32:18.356Z,3.75
2022-12-11T12:35:00.961Z,3.25
2022-12-11T12:37:14.097Z,4.18
2022-12-11T12:39:26.563Z,3.53
2022-12-11T12:42:07.074Z,3.17
2022-12-11T12:44:16.784Z,2.90
2022-12-11T12:46:24.505Z,2.60
2022-12-11T12:48:28.255Z,3.50
2022-12-11T12:50:36.552Z,3.13
2022-12-11T12:52:41.406Z,3.35
2022-12-11T12:55:04.209Z,3.63
2022-12-11T12:57:08.958Z,2.85
2022-12-11T12:59:23.797Z,3.00
2022-12-11T13:01:31.839Z,3.35
2022-12-11T13:03:37.067Z,3.00
2022-12-11T13:05:41.453Z,3.67
2022-12-11T13:07:54.021Z,3.28
2022-12-11T13:10:05.059Z,2.35
2022-12-11T13:12:14.994Z,2.28
2022-12-11T13:14:23.315Z,3.03
2022-12-11T13:16:40.892Z,2.50
2022-12-11T13:18:47.487Z,2.10
2022-12-11T13:20:54.447Z,3.00
2022-12-11T13:23:29.069Z,2.90
2022-12-11T13:26:02.873Z,2.90
2022-12-11T13:28:42.348Z,2.28
2022-12-11T13:31:38.950Z,2.28
2022-12-11T13:34:10.344Z,3.38
2022-12-11T13:36:38.104Z,2.75
2022-12-11T13:39:00.776Z,2.83
2022-12-11T13:41:29.032Z,3.10
2022-12-11T13:43:49.726Z,2.55
2022-12-11T13:46:13.601Z,2.90
2022-12-11T13:48:26.121Z,3.05
2022-12-11T13:50:47.664Z,3.13
2022-12-11T13:52:59.652Z,3.03
2022-12-11T13:55:37.351Z,2.65
2022-12-11T13:57:57.178Z,3.78
2022-12-11T14:00:03.811Z,3.92
2022-12-11T14:02:26.877Z,4.70
2022-12-11T14:04:47.992Z,3.80
2022-12-11T14:06:49.742Z,3.63
2022-12-11T14:08:53.266Z,3.47
2022-12-11T14:10:54.984Z,3.63
2022-12-11T14:12:56.595Z,3.65
2022-12-11T14:14:59.617Z,2.85
2022-12-11T14:17:12.804Z,3.45
2022-12-11T14:19:21.679Z,2.92
2022-12-11T14:21:29.033Z,2.42
2022-12-11T14:25:34.863Z,3.88
2022-12-11T14:27:36.350Z,2.80
2022-12-11T14:29:40.602Z,3.33
2022-12-11T14:33:51.980Z,3.35
2022-12-11T14:36:00.774Z,3.55
2022-12-11T14:38:04.576Z,3.45
2022-12-11T14:40:20.499Z,4.80
2022-12-11T14:42:25.000Z,3.67
2022-12-11T14:44:29.054Z,3.33
2022-12-11T14:48:35.117Z,3.08
2022-12-11T14:50:47.793Z,3.08
2022-12-11T14:52:54.057Z,2.92
2022-12-11T14:55:00.157Z,2.70
2022-12-11T14:57:06.715Z,2.35
2022-12-11T14:59:19.316Z,1.67
2022-12-11T15:01:22.897Z,1.70
2022-12-11T15:03:26.234Z,1.95
2022-12-11T15:05:28.303Z,2.63
2022-12-11T15:07:30.092Z,2.83
2022-12-11T15:09:35.731Z,2.83
2022-12-11T15:11:40.453Z,2.55
2022-12-11T15:13:55.693Z,2.55
2022-12-11T15:16:00.641Z,3.47
2022-12-11T15:18:14.190Z,3.10
2022-12-11T15:20:24.838Z,4.38
2022-12-11T15:22:29.531Z,3.90
2022-12-11T15:24:40.185Z,5.32
2022-12-11T15:26:46.303Z,4.50
2022-12-11T15:28:47.895Z,4.90
2022-12-11T15:30:56.083Z,5.05
2022-12-11T15:33:09.497Z,4.80
2022-12-11T15:35:41.641Z,4.20
2022-12-11T15:37:53.421Z,3.60
2022-12-11T15:39:55.530Z,3.30
2022-12-11T15:41:57.152Z,3.35
2022-12-11T15:44:05.007Z,4.13
2022-12-11T15:46:07.449Z,2.83
2022-12-11T15:48:11.527Z,4.53
2022-12-11T15:52:17.584Z,3.35
2022-12-11T15:54:19.381Z,3.50
2022-12-11T15:56:27.051Z,2.80
2022-12-11T15:58:31.393Z,2.67
2022-12-11T16:00:39.166Z,2.53
2022-12-11T16:02:40.677Z,2.85
2022-12-11T16:04:42.315Z,3.22
2022-12-11T16:06:49.573Z,3.80
2022-12-11T16:10:55.381Z,2.30
2022-12-11T16:13:03.303Z,2.53
2022-12-11T16:15:14.379Z,3.03
2022-12-11T16:17:17.993Z,2.17
2022-12-11T16:19:19.549Z,2.15
2022-12-11T16:21:21.693Z,2.55
2022-12-11T16:23:26.174Z,5.47
2022-12-11T16:25:28.140Z,4.93
2022-12-11T16:27:37.403Z,3.90
2022-12-11T16:29:45.108Z,3.40
2022-12-11T16:31:56.327Z,4.68
2022-12-11T16:34:14.227Z,3.53
2022-12-11T16:36:28.453Z,4.68
2022-12-11T16:40:50.116Z,5.10
2022-12-11T16:43:00.745Z,4.30
2022-12-11T16:45:20.315Z,3.85
2022-12-11T16:47:35.442Z,4.53
2022-12-11T16:49:49.348Z,3.85
2022-12-11T16:52:00.142Z,3.30
2022-12-11T16:54:13.644Z,4.45
2022-12-11T16:56:31.921Z,3.58
2022-12-11T16:58:48.091Z,3.00
2022-12-11T17:01:05.880Z,2.80
2022-12-11T17:03:13.191Z,4.10
2022-12-11T17:05:14.994Z,4.30
2022-12-11T17:07:20.489Z,4.18
2022-12-11T17:09:22.374Z,4.30
2022-12-11T17:11:26.506Z,3.55
2022-12-11T17:13:31.715Z,3.25
2022-12-11T17:15:41.569Z,3.08
2022-12-11T17:17:46.062Z,3.67
2022-12-11T17:19:47.599Z,3.25
2022-12-11T17:21:56.125Z,2.90
2022-12-11T17:24:00.345Z,3.28
2022-12-11T17:26:02.985Z,2.33
2022-12-11T17:28:07.261Z,2.83
2022-12-11T17:30:09.229Z,2.30
2022-12-11T17:32:13.421Z,3.58
2022-12-11T17:34:15.984Z,4.45
2022-12-11T17:36:19.286Z,3.65
2022-12-11T17:38:27.033Z,3.20
2022-12-11T17:40:28.730Z,4.72
2022-12-11T17:42:33.719Z,3.08
2022-12-11T17:44:36.165Z,3.78
2022-12-11T17:46:40.817Z,5.20
2022-12-11T17:48:43.130Z,4.03
2022-12-11T17:50:47.603Z,3.75
2022-12-11T17:52:52.080Z,5.50
2022-12-11T17:54:56.430Z,4.10
2022-12-11T17:56:58.005Z,3.80
2022-12-11T17:59:00.620Z,4.78
2022-12-11T18:01:07.386Z,3.75
2022-12-11T18:03:09.701Z,3.17
2022-12-11T18:05:17.325Z,3.08
2022-12-11T18:07:19.629Z,3.30
2022-12-11T18:09:24.023Z,2.95
2022-12-11T18:11:25.727Z,2.53
2022-12-11T18:13:27.290Z,2.80
2022-12-11T18:15:28.882Z,2.83
2022-12-11T18:17:30.417Z,2.47
2022-12-11T18:19:32.040Z,2.75
2022-12-11T18:21:46.134Z,3.35
2022-12-11T18:23:48.213Z,2.85
2022-12-11T18:25:55.424Z,2.95
2022-12-11T18:27:57.221Z,3.58
2022-12-11T18:29:58.793Z,4.22
2022-12-11T18:32:00.412Z,3.88
2022-12-11T18:34:08.109Z,3.97
2022-12-11T18:36:10.302Z,3.17
2022-12-11T18:38:18.054Z,2.92
2022-12-11T18:40:25.685Z,4.05
2022-12-11T18:42:33.425Z,4.22
2022-12-11T18:44:43.248Z,3.38
2022-12-11T18:46:50.813Z,4.72
2022-12-11T18:48:58.400Z,4.25
2022-12-11T18:51:06.396Z,6.47
2022-12-11T18:53:10.684Z,9.52
2022-12-11T18:55:12.766Z,8.55
2022-12-11T18:57:14.559Z,7.97
2022-12-11T18:59:19.319Z,6.97
2022-12-11T19:01:29.120Z,8.55
2022-12-11T19:03:30.675Z,9.70
2022-12-11T19:05:32.320Z,7.57
2022-12-11T19:07:34.134Z,7.75
2022-12-11T19:09:38.296Z,7.68
2022-12-11T19:11:47.532Z,6.60
2022-12-11T19:13:56.780Z,11.52
2022-12-11T19:16:04.305Z,8.20
2022-12-11T19:18:09.326Z,8.57
2022-12-11T19:20:47.535Z,10.55
2022-12-11T19:22:41.607Z,12.63
2022-12-11T19:24:43.281Z,11.75
2022-12-11T19:26:44.798Z,10.73
2022-12-11T19:28:47.078Z,12.57
2022-12-11T19:30:49.193Z,11.50
2022-12-11T19:32:51.293Z,11.57
2022-12-11T19:35:09.705Z,10.35
2022-12-11T19:37:21.623Z,11.45
2022-12-11T19:40:07.050Z,12.68
2022-12-11T19:45:18.446Z,14.20
2022-12-11T19:47:48.339Z,12.73
2022-12-11T19:50:05.195Z,14.30
2022-12-11T19:52:17.487Z,11.45
2022-12-11T19:54:30.073Z,14.20
2022-12-11T19:56:39.040Z,11.77
2022-12-11T19:58:47.705Z,9.63
2022-12-11T20:01:05.022Z,10.45
2022-12-11T20:03:16.365Z,10.02
2022-12-11T20:05:34.575Z,12.07
2022-12-11T20:07:50.363Z,10.45
2022-12-11T20:10:05.698Z,11.77
2022-12-11T20:12:10.600Z,10.60
2022-12-11T20:14:22.980Z,10.75
2022-12-11T20:17:02.220Z,11.60
2022-12-11T20:19:01.526Z,10.48
2022-12-11T20:21:04.850Z,10.70
2022-12-11T20:23:12.355Z,9.60
2022-12-11T20:25:20.970Z,9.13
2022-12-11T20:27:29.829Z,8.65
2022-12-11T20:29:31.465Z,11.23
2022-12-11T20:31:39.533Z,8.88
2022-12-11T20:33:46.909Z,7.70
2022-12-11T20:35:54.398Z,7.20
2022-12-11T20:38:01.936Z,7.38
2022-12-11T20:40:10.142Z,8.20
2022-12-11T20:42:14.663Z,11.27
2022-12-11T20:44:20.247Z,7.22
2022-12-11T20:46:25.347Z,8.05
2022-12-11T20:52:09.664Z,8.90
2022-12-11T20:54:11.348Z,8.80
2022-12-11T20:56:21.943Z,8.88
2022-12-11T20:58:24.014Z,9.80
2022-12-11T21:00:25.834Z,7.60
2022-12-11T21:02:30.924Z,7.40
2022-12-11T21:04:41.030Z,9.35
2022-12-11T21:06:42.576Z,8.85
2022-12-11T21:08:46.918Z,10.48
2022-12-11T21:10:48.664Z,9.32
2022-12-11T21:12:56.209Z,9.57
2022-12-11T21:15:04.578Z,10.88
2022-12-11T21:17:06.313Z,11.68
2022-12-11T21:19:17.225Z,9.98
2022-12-11T21:21:18.966Z,7.88
2022-12-11T21:23:26.666Z,7.35
2022-12-11T21:25:28.231Z,11.77
2022-12-11T21:27:30.277Z,8.93
2022-12-11T21:29:37.797Z,7.18
2022-12-11T21:31:39.590Z,8.35
2022-12-11T21:33:41.459Z,8.00
2022-12-11T21:35:43.339Z,9.27
2022-12-11T21:37:45.095Z,9.98
2022-12-11T21:39:46.758Z,7.57
2022-12-11T21:41:54.276Z,8.50
2022-12-11T21:46:21.740Z,6.75
2022-12-11T21:48:29.207Z,7.38
2022-12-11T21:50:36.491Z,7.47
2022-12-11T21:52:44.292Z,6.35
2022-12-11T21:54:45.844Z,5.68
2022-12-11T21:56:54.666Z,7.28
2022-12-11T21:59:02.681Z,5.88
2022-12-11T22:01:14.280Z,4.97
2022-12-11T22:03:21.548Z,7.55
2022-12-11T22:05:29.275Z,5.95
2022-12-11T22:07:36.975Z,6.40
2022-12-11T22:09:38.671Z,5.13
2022-12-11T22:11:46.468Z,5.05
2022-12-11T22:13:48.349Z,6.05
2022-12-11T22:15:56.154Z,5.85
2022-12-11T22:17:57.845Z,6.38
2022-12-11T22:20:06.087Z,5.25
2022-12-11T22:22:14.172Z,6.80
2022-12-11T22:24:15.941Z,6.20
2022-12-11T22:26:25.214Z,5.53
2022-12-11T22:28:32.737Z,5.22
2022-12-11T22:30:40.468Z,5.80
2022-12-11T22:32:43.324Z,5.90
2022-12-11T22:34:50.569Z,6.70
2022-12-11T22:39:02.675Z,5.50
2022-12-11T22:41:11.428Z,5.13
2022-12-11T22:43:16.392Z,7.03
2022-12-11T22:45:30.176Z,5.50
2022-12-11T22:47:47.565Z,5.72
2022-12-11T22:50:03.680Z,6.00
2022-12-11T22:52:21.748Z,6.18
2022-12-11T22:54:39.349Z,7.07
2022-12-11T22:56:44.882Z,9.43
2022-12-11T22:58:55.393Z,9.77
2022-12-11T23:01:21.383Z,10.18
2022-12-11T23:03:32.515Z,7.72
2022-12-11T23:05:46.594Z,8.77
2022-12-11T23:07:52.842Z,8.27
2022-12-11T23:09:58.068Z,9.40
2022-12-11T23:12:17.265Z,8.82
2022-12-11T23:14:27.715Z,9.23
2022-12-11T23:16:40.200Z,9.43
2022-12-11T23:18:43.488Z,9.43
2022-12-11T23:20:49.211Z,9.45
2022-12-11T23:22:50.812Z,9.50
2022-12-11T23:24:52.411Z,9.02
2022-12-11T23:28:59.060Z,8.20
2022-12-11T23:31:06.951Z,9.25
2022-12-11T23:33:08.541Z,7.63
2022-12-11T23:35:10.468Z,10.60
2022-12-11T23:37:18.265Z,10.35
2022-12-11T23:39:19.717Z,9.63
2022-12-11T23:41:21.335Z,10.05
2022-12-11T23:43:29.272Z,10.00
2022-12-11T23:45:34.108Z,9.73
2022-12-11T23:47:41.460Z,8.85
2022-12-11T23:49:43.108Z,9.27
2022-12-11T23:51:50.513Z,9.95
2022-12-11T23:53:57.947Z,8.85
2022-12-11T23:56:06.947Z,8.07
2022-12-11T23:58:09.113Z,7.63
